ADDS METAR Data INFO
IDs: Format: Raw Decoded Include TAF

Data at: 0836 UTC 21 Oct 2017

KASD 210753Z AUTO 00000KT 10SM BKN029 21/19 A3004 RMK AO2 SLP172 T02060194
KASD 210653Z AUTO 36003KT 10SM BKN025 21/19 A3006 RMK AO2 SLP177 T02110194
KASD 210611Z AUTO 00000KT 10SM BKN023 OVC055 22/20 A3005 RMK AO2 T02170200
KASD 210553Z AUTO 08004KT 10SM FEW024 OVC050 22/20 A3005 RMK AO2 RAB00E13 SLP174 P0000 60000 T02170200 10233 20206 402780150 58013
KASD 210453Z AUTO 07004KT 10SM FEW026 BKN036 OVC090 21/19 A3007 RMK AO2 SLP182 T02110194
KASD 210353Z AUTO 04003KT 10SM BKN036 21/19 A3008 RMK AO2 SLP186 T02060189
KASD 210253Z AUTO 00000KT 10SM CLR 21/19 A3009 RMK AO2 SLP187 T02110194 53006
KASD 210153Z AUTO 08004KT 10SM CLR 22/19 A3007 RMK AO2 SLP182 T02170194
KASD 210053Z AUTO 07003KT 10SM CLR 22/19 A3007 RMK AO2 SLP182 T02220194
KASD 202353Z AUTO 09005KT 10SM CLR 23/19 A3007 RMK AO2 SLP181 T02330189 10278 20233 50000
KASD 202253Z AUTO 11008KT 10SM BKN050 BKN060 OVC080 24/19 A3007 RMK AO2 SLP182 T02440189
KASD 202153Z AUTO 10006KT 10SM FEW022 OVC055 25/20 A3006 RMK AO2 SLP180 T02500200
KASD 202053Z AUTO 12003KT 10SM FEW024 SCT043 OVC060 26/21 A3007 RMK AO2 SLP181 T02610206 56018
KASD 201953Z AUTO 07006KT 10SM SCT022 SCT043 OVC050 26/20 A3007 RMK AO2 SLP181 T02610200
KASD 201925Z AUTO 09009KT 10SM SCT030 OVC060 26/19 A3007 RMK AO2 T02560194
KASD 201853Z AUTO 09010G15KT 10SM BKN029 OVC060 26/19 A3008 RMK AO2 SLP186 T02610194
KASD 201825Z AUTO 08011G17KT 10SM FEW011 BKN027 OVC035 28/20 A3010 RMK AO2 T02780200
KASD 201753Z AUTO 10006KT 10SM SCT022 SCT029 27/20 A3012 RMK AO2 SLP199 T02670200 10272 20150 58016
KASD 201653Z AUTO 09006KT 10SM FEW025 26/19 A3014 RMK AO2 SLP207 T02610194
KASD 201641Z AUTO 07005KT 10SM SCT012 25/19 A3015 RMK AO2 T02500194
KASD 201626Z AUTO 07006KT 10SM BKN013 25/19 A3015 RMK AO2 T02500189
KASD 201615Z AUTO 09008KT 10SM BKN015 25/19 A3015 RMK AO2 T02500189
KASD 201553Z AUTO 09007KT 050V120 10SM SCT014 24/18 A3015 RMK AO2 SLP211 T02390183
KASD 201530Z AUTO 06006KT 10SM BKN013 23/18 A3016 RMK AO2 T02280178
KASD 201453Z AUTO 06006KT 10SM CLR 21/17 A3016 RMK AO2 SLP214 T02060167 50003
KASD 201353Z AUTO 06004KT 10SM CLR 19/16 A3017 RMK AO2 SLP217 T01890156
KASD 201253Z AUTO 04004KT 10SM FEW047 17/15 A3016 RMK AO2 SLP212 T01670150
KASD 201153Z AUTO 03003KT 10SM CLR 15/14 A3016 RMK AO2 SLP211 T01500139 10183 20150 53009
KASD 201053Z AUTO 02003KT 10SM CLR 16/14 A3014 RMK AO2 SLP207 T01560139
KASD 200953Z AUTO 05003KT 10SM CLR 17/14 A3013 RMK AO2 SLP204 T01670144
KASD 200853Z AUTO 04003KT 10SM CLR 17/14 A3013 RMK AO2 SLP202 T01670144 58013
KASD 200753Z AUTO 03004KT 10SM CLR 17/15 A3014 RMK AO2 SLP206 T01670150
KASD 200653Z AUTO 03003KT 10SM CLR 17/15 A3016 RMK AO2 SLP212 T01670150
KASD 200553Z AUTO 06003KT 10SM CLR 18/17 A3017 RMK AO2 SLP215 T01830167 10228 20172 402940117 50000
KASD 200453Z AUTO 00000KT 10SM CLR 17/16 A3017 RMK AO2 SLP217 T01720156
KASD 200353Z AUTO 00000KT 10SM CLR 18/17 A3018 RMK AO2 SLP218 T01780167
KASD 200253Z AUTO 00000KT 10SM CLR 18/17 A3017 RMK AO2 SLP215 T01830167 53010
KASD 200153Z AUTO 00000KT 10SM CLR 19/17 A3015 RMK AO2 SLP211 T01890172
KASD 200053Z AUTO 00000KT 10SM CLR 21/18 A3015 RMK AO2 SLP209 T02060178
KASD 192353Z AUTO 00000KT 10SM CLR 23/18 A3014 RMK AO2 SLP205 T02280183 10294 20228 53006
KASD 192305Z AUTO 12005KT 10SM SCT010 24/18 A3013 RMK AO2 T02440178
KASD 192253Z AUTO 12007KT 10SM BKN010 25/18 A3013 RMK AO2 SLP202 T02500183
KASD 192249Z AUTO 12006KT 10SM BKN010 26/18 A3013 RMK AO2
KASD 192153Z AUTO 13007KT 10SM CLR 27/18 A3012 RMK AO2 SLP200 T02720178
KASD 192053Z AUTO 12006KT 10SM CLR 29/15 A3012 RMK AO2 SLP200 T02890150 56017